Messwerte Morristown NJ

Temperatur

Temperatur
°C
1594440000 0.00 0.00 23
1594443600 1.00 1.00 23
1594447200 2.00 2.00 23
1594450800 3.00 3.00 23
1594454400 4.00 4.00 22
1594458000 5.00 5.00 22
1594461600 6.00 6.00 22
1594465200 7.00 7.00 22
1594468800 8.00 8.00
1594472400 9.00 9.00
1594476000 10.00 10.00 28
1594479600 11.00 11.00 28
1594483200 12.00 12.00 29
1594486800 13.00 13.00 30
1594490400 14.00 14.00 31
1594494000 15.00 15.00 32
1594497600 16.00 16.00 32
1594501200 17.00 17.00 31
1594504800 18.00 18.00
1594508400 19.00 19.00
1594512000 20.00 20.00
1594515600 21.00 21.00
1594519200 22.00 22.00
1594522800 23.00 23.00 24

Aktuellste Messwerte

Wettercharakter
Wetter: klar
Temperatur
23 °C
Feuchtigkeit
85 %
Wind
10 km/hWindrichtung: Südwest
Luftdruck
1005 hPa
Messzeit: 12. Juli 2020, 0.00Datenquelle: METAR

Weitere Messstationen in der Nähe

Messstation Temperatur Entfernung
Caldwell 24 °C 14 km
Newark 25 °C 23 km
Somerville 25 °C 30 km
Teterboro NJ 24 °C 30 km
Andover 23.0 °C 36 km
New York City 24 °C 37 km
New York City 28 °C 43 km

Wind

Windrichtung Böen Mittelwind
° km/h km/h
1594440000 0.00 23.00 - 0.00 180° 10
1594443600 1.00 0.00 - 1.00 190° 15
1594447200 2.00 1.00 - 2.00 200° 30 20
1594450800 3.00 2.00 - 3.00 200° 30 25
1594454400 4.00 3.00 - 4.00 200° 25 15
1594458000 5.00 4.00 - 5.00 200° 10
1594461600 6.00 5.00 - 6.00 210° 5
1594465200 7.00 6.00 - 7.00 0
1594468800 8.00 7.00 - 8.00
1594472400 9.00 8.00 - 9.00
1594476000 10.00 9.00 - 10.00 200° 5
1594479600 11.00 10.00 - 11.00 0
1594483200 12.00 11.00 - 12.00 200° 5
1594486800 13.00 12.00 - 13.00 210° 10
1594490400 14.00 13.00 - 14.00 220° 25 10
1594494000 15.00 14.00 - 15.00 230° 30 20
1594497600 16.00 15.00 - 16.00 230° 30 20
1594501200 17.00 16.00 - 17.00 230° 10
1594504800 18.00 17.00 - 18.00
1594508400 19.00 18.00 - 19.00
1594512000 20.00 19.00 - 20.00
1594515600 21.00 20.00 - 21.00
1594519200 22.00 21.00 - 22.00
1594522800 23.00 22.00 - 23.00 220° 10

Ihre Wetterstation

Fehlt Ihre Wetterstation auf unserem Portal?

Schreiben Sie an network@meteonews.ch

Klima

Wann ist es am wärmsten? Wann regnet es am wenigsten? Unsere Klimadaten geben Auskunft.